createdAt,value
2022-08-23T00:04:37.814Z,2.47
2022-08-23T00:09:40.188Z,3.45
2022-08-23T00:14:41.931Z,2.67
2022-08-23T00:19:47.122Z,4.53
2022-08-23T00:24:48.870Z,3.17
2022-08-23T00:29:50.670Z,4.28
2022-08-23T00:34:52.408Z,4.03
2022-08-23T00:39:54.188Z,2.40
2022-08-23T00:44:55.906Z,5.43
2022-08-23T00:49:57.649Z,1.58
2022-08-23T00:54:59.409Z,2.92
2022-08-23T01:00:01.194Z,3.22
2022-08-23T01:05:02.917Z,2.63
2022-08-23T01:10:04.703Z,3.13
2022-08-23T01:15:09.893Z,4.68
2022-08-23T01:20:11.620Z,2.70
2022-08-23T01:25:13.382Z,3.67
2022-08-23T01:30:15.132Z,2.80
2022-08-23T01:35:16.946Z,3.00
2022-08-23T01:40:18.685Z,2.17
2022-08-23T01:45:20.290Z,3.45
2022-08-23T01:50:22.140Z,3.78
2022-08-23T01:55:23.692Z,2.78
2022-08-23T02:00:25.349Z,200.90
2022-08-23T02:05:27.005Z,131.07
2022-08-23T02:10:28.889Z,206.10
2022-08-23T02:15:30.606Z,206.85
2022-08-23T02:20:32.387Z,207.35
2022-08-23T02:25:34.127Z,203.63
2022-08-23T02:30:35.742Z,212.82
2022-08-23T02:35:37.424Z,240.23
2022-08-23T02:40:39.074Z,237.45
2022-08-23T02:45:40.842Z,232.32
2022-08-23T02:50:42.397Z,240.57
2022-08-23T02:55:44.035Z,196.75
2022-08-23T03:00:45.665Z,222.68
2022-08-23T03:05:47.531Z,233.45
2022-08-23T03:10:49.299Z,222.93
2022-08-23T03:15:51.047Z,229.00
2022-08-23T03:20:52.797Z,239.55
2022-08-23T03:25:54.569Z,234.77
2022-08-23T03:30:56.318Z,232.52
2022-08-23T03:35:58.128Z,231.75
2022-08-23T03:41:01.704Z,234.93
2022-08-23T03:46:03.472Z,232.13
2022-08-23T03:51:05.115Z,252.55
2022-08-23T03:56:06.953Z,234.50
2022-08-23T04:01:08.691Z,233.25
2022-08-23T04:06:10.265Z,188.88
2022-08-23T04:11:11.909Z,204.82
2022-08-23T04:16:13.654Z,223.00
2022-08-23T04:21:15.400Z,234.25
2022-08-23T04:26:17.174Z,229.35
2022-08-23T04:31:18.938Z,226.20
2022-08-23T04:36:20.680Z,222.30
2022-08-23T04:41:25.137Z,232.25
2022-08-23T04:46:26.999Z,228.38
2022-08-23T04:51:28.540Z,217.50
2022-08-23T04:56:30.091Z,209.48
2022-08-23T05:01:31.736Z,213.70
2022-08-23T05:06:33.401Z,211.57
2022-08-23T05:11:35.157Z,212.27
2022-08-23T05:16:36.895Z,214.50
2022-08-23T05:21:38.533Z,216.60
2022-08-23T05:26:40.092Z,215.70
2022-08-23T05:31:41.651Z,211.82
2022-08-23T05:36:48.424Z,262.35
2022-08-23T05:41:57.219Z,265.83
2022-08-23T05:46:58.794Z,251.80
2022-08-23T05:52:00.778Z,242.70
2022-08-23T05:57:02.540Z,242.00
2022-08-23T06:02:04.320Z,250.15
2022-08-23T06:07:05.893Z,245.73
2022-08-23T06:12:07.790Z,253.73
2022-08-23T06:17:09.366Z,261.25
2022-08-23T06:22:10.996Z,275.15
2022-08-23T06:27:12.733Z,293.88
2022-08-23T06:32:14.395Z,295.40
2022-08-23T06:37:16.248Z,290.70
2022-08-23T06:42:37.984Z,302.80
2022-08-23T06:47:39.523Z,260.30
2022-08-23T06:52:41.150Z,286.10
2022-08-23T06:57:43.000Z,298.58
2022-08-23T07:02:44.790Z,304.83
2022-08-23T07:07:51.847Z,312.63
2022-08-23T07:12:53.418Z,311.38
2022-08-23T07:17:55.037Z,313.10
2022-08-23T07:22:56.879Z,309.92
2022-08-23T07:28:02.271Z,330.75
2022-08-23T07:33:04.390Z,318.10
2022-08-23T07:38:08.947Z,349.48
2022-08-23T07:43:10.693Z,334.35
2022-08-23T07:48:14.314Z,304.20
2022-08-23T07:53:31.836Z,306.77
2022-08-23T07:58:39.818Z,316.42
2022-08-23T08:03:41.564Z,330.73
2022-08-23T08:08:43.289Z,327.33
2022-08-23T08:13:45.042Z,310.67
2022-08-23T08:18:46.825Z,309.27
2022-08-23T08:23:48.616Z,316.33
2022-08-23T08:28:50.337Z,305.45
2022-08-23T08:33:51.905Z,295.52
2022-08-23T08:38:58.326Z,284.42
2022-08-23T08:44:02.483Z,288.08
2022-08-23T08:49:04.230Z,286.95
2022-08-23T08:54:05.989Z,287.98
2022-08-23T08:59:07.738Z,283.48
2022-08-23T09:04:09.416Z,285.60
2022-08-23T09:09:10.987Z,229.10
2022-08-23T09:14:12.818Z,215.32
2022-08-23T09:19:14.741Z,194.05
2022-08-23T09:24:16.315Z,159.25
2022-08-23T09:29:17.957Z,141.43
2022-08-23T09:34:19.685Z,119.10
2022-08-23T09:39:21.266Z,100.30
2022-08-23T09:44:24.092Z,79.18
2022-08-23T09:49:30.941Z,60.35
2022-08-23T09:54:32.517Z,44.25
2022-08-23T09:59:34.090Z,40.67
2022-08-23T10:04:35.935Z,34.55
2022-08-23T10:09:37.604Z,29.75
2022-08-23T10:14:39.362Z,25.00
2022-08-23T10:19:47.688Z,20.48
2022-08-23T10:24:49.565Z,16.70
2022-08-23T10:29:51.199Z,18.63
2022-08-23T10:34:52.783Z,11.25
2022-08-23T10:39:54.447Z,13.45
2022-08-23T10:44:56.176Z,13.73
2022-08-23T10:49:57.930Z,12.13
2022-08-23T10:54:59.500Z,11.77
2022-08-23T11:00:01.137Z,13.32
2022-08-23T11:05:02.893Z,13.57
2022-08-23T11:10:04.619Z,9.02
2022-08-23T11:15:06.693Z,9.95
2022-08-23T11:20:08.434Z,9.55
2022-08-23T11:25:10.074Z,12.05
2022-08-23T11:30:11.952Z,10.52
2022-08-23T11:35:13.720Z,11.23
2022-08-23T11:40:18.342Z,8.98
2022-08-23T11:45:20.346Z,11.02
2022-08-23T11:50:21.990Z,9.65
2022-08-23T11:55:24.292Z,9.82
2022-08-23T12:00:28.884Z,11.10
2022-08-23T12:05:31.141Z,13.65
2022-08-23T12:10:32.765Z,13.73
2022-08-23T12:15:34.683Z,14.30
2022-08-23T12:20:38.116Z,11.95
2022-08-23T12:25:40.386Z,11.60
2022-08-23T12:30:44.227Z,9.15
2022-08-23T12:35:45.999Z,10.95
2022-08-23T12:40:47.823Z,13.95
2022-08-23T12:45:49.448Z,13.73
2022-08-23T12:50:51.337Z,13.82
2022-08-23T12:55:52.984Z,14.02
2022-08-23T13:00:54.593Z,11.48
2022-08-23T13:05:56.229Z,11.40
2022-08-23T13:10:57.790Z,16.77
2022-08-23T13:15:59.468Z,16.08
2022-08-23T13:21:01.191Z,17.05
2022-08-23T13:26:02.962Z,12.82
2022-08-23T13:31:04.768Z,13.55
2022-08-23T13:36:06.456Z,11.23
2022-08-23T13:41:15.127Z,8.40
2022-08-23T13:46:16.749Z,9.68
2022-08-23T13:51:18.363Z,10.63
2022-08-23T13:56:19.940Z,9.32
2022-08-23T14:01:21.787Z,11.25
2022-08-23T14:06:23.455Z,14.10
2022-08-23T14:11:25.042Z,12.98
2022-08-23T14:16:34.347Z,9.20
2022-08-23T14:21:36.337Z,12.55
2022-08-23T14:26:38.102Z,12.52
2022-08-23T14:31:53.334Z,15.32
2022-08-23T14:42:16.498Z,10.35
2022-08-23T14:47:18.325Z,14.52
2022-08-23T14:52:20.063Z,12.32
2022-08-23T14:57:21.817Z,13.23
2022-08-23T15:02:23.545Z,12.13
2022-08-23T15:07:25.209Z,15.43
2022-08-23T15:17:48.630Z,19.30
2022-08-23T15:22:55.865Z,14.13
2022-08-23T15:28:12.155Z,14.10
2022-08-23T15:33:14.550Z,13.52
2022-08-23T15:38:17.875Z,14.80
2022-08-23T15:43:19.614Z,11.10
2022-08-23T15:48:21.378Z,10.60
2022-08-23T15:53:23.112Z,12.65
2022-08-23T15:58:24.803Z,14.00
2022-08-23T16:03:26.477Z,16.23
2022-08-23T16:08:28.390Z,15.70
2022-08-23T16:13:30.133Z,13.80
2022-08-23T16:18:31.765Z,11.52
2022-08-23T16:23:33.322Z,13.68
2022-08-23T16:28:34.861Z,13.20
2022-08-23T16:33:36.538Z,16.60
2022-08-23T16:38:38.304Z,16.77
2022-08-23T16:43:40.030Z,11.65
2022-08-23T16:48:41.571Z,18.73
2022-08-23T16:53:43.472Z,19.85
2022-08-23T16:58:54.132Z,16.40
2022-08-23T17:03:55.684Z,11.05
2022-08-23T17:08:57.267Z,13.38
2022-08-23T17:13:59.033Z,17.70
2022-08-23T17:19:07.061Z,16.95
2022-08-23T17:24:08.821Z,19.25
2022-08-23T17:29:10.428Z,18.58
2022-08-23T17:34:11.986Z,14.98
2022-08-23T17:39:13.753Z,11.88
2022-08-23T17:44:15.538Z,15.15
2022-08-23T17:49:17.285Z,10.68
2022-08-23T17:54:19.023Z,10.38
2022-08-23T17:59:22.592Z,13.85
2022-08-23T18:04:25.363Z,12.90
2022-08-23T18:09:27.077Z,11.77
2022-08-23T18:14:28.865Z,16.38
2022-08-23T18:19:30.601Z,15.45
2022-08-23T18:24:32.281Z,22.10
2022-08-23T18:29:34.118Z,15.25
2022-08-23T18:34:38.059Z,14.65
2022-08-23T18:39:39.989Z,14.98
2022-08-23T18:44:41.559Z,13.30
2022-08-23T18:49:43.343Z,15.98
2022-08-23T18:54:45.084Z,18.23
2022-08-23T18:59:46.786Z,15.63
2022-08-23T19:04:48.393Z,18.23
2022-08-23T19:09:50.017Z,15.32
2022-08-23T19:14:51.699Z,15.07
2022-08-23T19:19:53.604Z,19.25
2022-08-23T19:24:55.178Z,22.40
2022-08-23T19:29:56.751Z,20.20
2022-08-23T19:34:58.507Z,18.52
2022-08-23T19:40:00.410Z,21.52
2022-08-23T19:45:02.031Z,22.98
2022-08-23T19:50:03.591Z,25.00
2022-08-23T19:55:07.198Z,23.88
2022-08-23T20:00:09.153Z,23.92
2022-08-23T20:05:13.280Z,26.55
2022-08-23T20:10:15.308Z,25.42
2022-08-23T20:15:17.077Z,27.77
2022-08-23T20:20:18.638Z,23.27
2022-08-23T20:25:22.422Z,28.42
2022-08-23T20:30:24.048Z,25.42
2022-08-23T20:35:25.824Z,22.42
2022-08-23T20:40:27.569Z,25.20
2022-08-23T20:45:29.180Z,26.92
2022-08-23T20:50:30.753Z,28.30
2022-08-23T20:55:32.522Z,27.20
2022-08-23T21:00:34.091Z,29.15
2022-08-23T21:05:35.710Z,26.17
2022-08-23T21:10:38.079Z,27.88
2022-08-23T21:15:42.875Z,30.95
2022-08-23T21:20:44.758Z,28.40
2022-08-23T21:25:46.494Z,34.67
2022-08-23T21:30:48.168Z,35.78
2022-08-23T21:35:50.000Z,27.58
2022-08-23T21:40:51.735Z,30.90
2022-08-23T21:45:53.345Z,35.70
2022-08-23T21:50:55.245Z,36.70
2022-08-23T21:55:56.973Z,38.03
2022-08-23T22:00:59.753Z,35.75
2022-08-23T22:06:01.480Z,35.20
2022-08-23T22:11:03.330Z,35.53
2022-08-23T22:16:05.034Z,37.33
2022-08-23T22:21:06.626Z,39.05
2022-08-23T22:26:08.464Z,40.13
2022-08-23T22:31:10.608Z,39.38
2022-08-23T22:36:12.304Z,42.53
2022-08-23T22:41:14.064Z,42.67
2022-08-23T22:46:15.845Z,39.75
2022-08-23T22:51:17.558Z,39.42
2022-08-23T22:56:19.311Z,37.00
2022-08-23T23:01:21.082Z,39.10
2022-08-23T23:06:24.376Z,38.13
2022-08-23T23:11:26.143Z,36.80
2022-08-23T23:16:27.955Z,37.88
2022-08-23T23:21:29.656Z,36.28
2022-08-23T23:26:31.423Z,43.42
2022-08-23T23:31:33.172Z,39.97
2022-08-23T23:36:34.917Z,32.53
2022-08-23T23:41:36.663Z,35.67
2022-08-23T23:46:39.410Z,35.45
2022-08-23T23:51:40.988Z,31.20
2022-08-23T23:56:42.577Z,34.15
